sensor_id;sensor_type;location;lat;lon;timestamp;P1;durP1;ratioP1;P2;durP2;ratioP2
29878;SDS011;16752;53.364;-1.488;2022-11-20T00:02:04;55.17;;;29.05;;
29878;SDS011;16752;53.364;-1.488;2022-11-20T00:04:30;53.03;;;28.80;;
29878;SDS011;16752;53.364;-1.488;2022-11-20T00:06:56;53.33;;;27.42;;
29878;SDS011;16752;53.364;-1.488;2022-11-20T00:09:22;52.38;;;28.00;;
29878;SDS011;16752;53.364;-1.488;2022-11-20T00:11:47;50.92;;;26.45;;
29878;SDS011;16752;53.364;-1.488;2022-11-20T00:14:13;50.97;;;28.70;;
29878;SDS011;16752;53.364;-1.488;2022-11-20T00:16:38;53.42;;;27.02;;
29878;SDS011;16752;53.364;-1.488;2022-11-20T00:19:04;52.03;;;27.33;;
29878;SDS011;16752;53.364;-1.488;2022-11-20T00:21:30;51.72;;;27.35;;
29878;SDS011;16752;53.364;-1.488;2022-11-20T00:23:56;61.83;;;29.10;;
29878;SDS011;16752;53.364;-1.488;2022-11-20T00:26:23;47.80;;;26.52;;
29878;SDS011;16752;53.364;-1.488;2022-11-20T00:28:52;47.87;;;27.30;;
29878;SDS011;16752;53.364;-1.488;2022-11-20T00:31:19;51.67;;;26.60;;
29878;SDS011;16752;53.364;-1.488;2022-11-20T00:33:45;43.70;;;25.70;;
29878;SDS011;16752;53.364;-1.488;2022-11-20T00:36:12;50.40;;;25.45;;
29878;SDS011;16752;53.364;-1.488;2022-11-20T00:41:07;55.15;;;26.83;;
29878;SDS011;16752;53.364;-1.488;2022-11-20T00:43:35;57.60;;;27.10;;
29878;SDS011;16752;53.364;-1.488;2022-11-20T00:46:15;50.40;;;27.00;;
29878;SDS011;16752;53.364;-1.488;2022-11-20T00:48:43;53.20;;;27.98;;
29878;SDS011;16752;53.364;-1.488;2022-11-20T00:51:10;48.22;;;25.75;;
29878;SDS011;16752;53.364;-1.488;2022-11-20T00:53:38;53.38;;;26.15;;
29878;SDS011;16752;53.364;-1.488;2022-11-20T00:56:07;55.20;;;25.10;;
29878;SDS011;16752;53.364;-1.488;2022-11-20T00:58:36;55.78;;;29.27;;
29878;SDS011;16752;53.364;-1.488;2022-11-20T01:03:34;52.33;;;28.83;;
29878;SDS011;16752;53.364;-1.488;2022-11-20T01:06:12;56.42;;;27.83;;
29878;SDS011;16752;53.364;-1.488;2022-11-20T01:08:42;61.45;;;29.58;;
29878;SDS011;16752;53.364;-1.488;2022-11-20T01:11:10;52.50;;;26.95;;
29878;SDS011;16752;53.364;-1.488;2022-11-20T01:13:37;48.50;;;27.38;;
29878;SDS011;16752;53.364;-1.488;2022-11-20T01:18:37;65.68;;;31.02;;
29878;SDS011;16752;53.364;-1.488;2022-11-20T01:21:05;57.08;;;27.05;;
29878;SDS011;16752;53.364;-1.488;2022-11-20T01:23:33;50.63;;;26.00;;
29878;SDS011;16752;53.364;-1.488;2022-11-20T01:26:04;51.08;;;27.40;;
29878;SDS011;16752;53.364;-1.488;2022-11-20T01:28:31;49.35;;;25.70;;
29878;SDS011;16752;53.364;-1.488;2022-11-20T01:30:57;45.78;;;24.80;;
29878;SDS011;16752;53.364;-1.488;2022-11-20T01:33:24;56.10;;;25.55;;
29878;SDS011;16752;53.364;-1.488;2022-11-20T01:35:49;47.72;;;25.08;;
29878;SDS011;16752;53.364;-1.488;2022-11-20T01:38:16;40.42;;;24.65;;
29878;SDS011;16752;53.364;-1.488;2022-11-20T01:40:42;47.97;;;24.17;;
29878;SDS011;16752;53.364;-1.488;2022-11-20T01:43:26;51.33;;;24.70;;
29878;SDS011;16752;53.364;-1.488;2022-11-20T01:48:46;48.95;;;22.70;;
29878;SDS011;16752;53.364;-1.488;2022-11-20T01:51:21;50.10;;;24.00;;
29878;SDS011;16752;53.364;-1.488;2022-11-20T01:53:55;47.22;;;23.67;;
29878;SDS011;16752;53.364;-1.488;2022-11-20T01:56:26;40.20;;;22.17;;
29878;SDS011;16752;53.364;-1.488;2022-11-20T01:58:56;44.55;;;20.80;;
29878;SDS011;16752;53.364;-1.488;2022-11-20T02:01:26;50.67;;;22.45;;
29878;SDS011;16752;53.364;-1.488;2022-11-20T02:03:58;41.90;;;21.45;;
29878;SDS011;16752;53.364;-1.488;2022-11-20T02:06:32;39.38;;;22.20;;
29878;SDS011;16752;53.364;-1.488;2022-11-20T02:11:29;43.25;;;20.80;;
29878;SDS011;16752;53.364;-1.488;2022-11-20T02:13:55;39.38;;;20.30;;
29878;SDS011;16752;53.364;-1.488;2022-11-20T02:18:51;49.63;;;22.15;;
29878;SDS011;16752;53.364;-1.488;2022-11-20T02:21:26;46.00;;;23.25;;
29878;SDS011;16752;53.364;-1.488;2022-11-20T02:24:12;46.45;;;23.20;;
29878;SDS011;16752;53.364;-1.488;2022-11-20T02:26:45;41.20;;;21.98;;
29878;SDS011;16752;53.364;-1.488;2022-11-20T02:29:19;46.67;;;23.77;;
29878;SDS011;16752;53.364;-1.488;2022-11-20T02:31:51;50.95;;;23.55;;
29878;SDS011;16752;53.364;-1.488;2022-11-20T02:34:20;53.80;;;21.60;;
29878;SDS011;16752;53.364;-1.488;2022-11-20T02:36:45;48.15;;;21.42;;
29878;SDS011;16752;53.364;-1.488;2022-11-20T02:39:13;41.20;;;20.13;;
29878;SDS011;16752;53.364;-1.488;2022-11-20T02:41:41;44.60;;;21.80;;
29878;SDS011;16752;53.364;-1.488;2022-11-20T02:44:07;35.97;;;19.80;;
29878;SDS011;16752;53.364;-1.488;2022-11-20T02:46:33;38.22;;;19.50;;
29878;SDS011;16752;53.364;-1.488;2022-11-20T02:49:00;42.10;;;19.38;;
29878;SDS011;16752;53.364;-1.488;2022-11-20T02:51:27;42.80;;;20.83;;
29878;SDS011;16752;53.364;-1.488;2022-11-20T02:53:53;39.53;;;20.65;;
29878;SDS011;16752;53.364;-1.488;2022-11-20T02:56:19;42.67;;;21.67;;
29878;SDS011;16752;53.364;-1.488;2022-11-20T02:58:45;43.08;;;20.13;;
29878;SDS011;16752;53.364;-1.488;2022-11-20T03:01:11;38.63;;;19.60;;
29878;SDS011;16752;53.364;-1.488;2022-11-20T03:03:36;44.38;;;19.95;;
29878;SDS011;16752;53.364;-1.488;2022-11-20T03:06:02;37.05;;;18.58;;
29878;SDS011;16752;53.364;-1.488;2022-11-20T03:08:28;40.22;;;19.50;;
29878;SDS011;16752;53.364;-1.488;2022-11-20T03:10:55;43.95;;;20.05;;
29878;SDS011;16752;53.364;-1.488;2022-11-20T03:13:20;32.47;;;17.42;;
29878;SDS011;16752;53.364;-1.488;2022-11-20T03:15:46;36.20;;;17.00;;
29878;SDS011;16752;53.364;-1.488;2022-11-20T03:18:11;34.63;;;16.20;;
29878;SDS011;16752;53.364;-1.488;2022-11-20T03:20:38;31.67;;;16.52;;
29878;SDS011;16752;53.364;-1.488;2022-11-20T03:23:04;30.83;;;15.95;;
29878;SDS011;16752;53.364;-1.488;2022-11-20T03:25:30;32.97;;;15.50;;
29878;SDS011;16752;53.364;-1.488;2022-11-20T03:27:56;33.25;;;16.52;;
29878;SDS011;16752;53.364;-1.488;2022-11-20T03:30:21;34.63;;;15.60;;
29878;SDS011;16752;53.364;-1.488;2022-11-20T03:32:47;30.42;;;14.85;;
29878;SDS011;16752;53.364;-1.488;2022-11-20T03:35:13;37.00;;;15.43;;
29878;SDS011;16752;53.364;-1.488;2022-11-20T03:37:39;37.03;;;15.23;;
29878;SDS011;16752;53.364;-1.488;2022-11-20T03:40:04;32.85;;;14.57;;
29878;SDS011;16752;53.364;-1.488;2022-11-20T03:42:31;26.38;;;13.23;;
29878;SDS011;16752;53.364;-1.488;2022-11-20T03:45:14;27.33;;;15.25;;
29878;SDS011;16752;53.364;-1.488;2022-11-20T03:47:41;29.10;;;13.35;;
29878;SDS011;16752;53.364;-1.488;2022-11-20T03:50:07;27.05;;;13.45;;
29878;SDS011;16752;53.364;-1.488;2022-11-20T03:52:34;27.40;;;13.55;;
29878;SDS011;16752;53.364;-1.488;2022-11-20T03:54:59;21.85;;;10.98;;
29878;SDS011;16752;53.364;-1.488;2022-11-20T03:57:25;20.73;;;10.98;;
29878;SDS011;16752;53.364;-1.488;2022-11-20T03:59:50;18.50;;;9.70;;
29878;SDS011;16752;53.364;-1.488;2022-11-20T04:02:16;22.63;;;10.70;;
29878;SDS011;16752;53.364;-1.488;2022-11-20T04:04:42;18.85;;;9.65;;
29878;SDS011;16752;53.364;-1.488;2022-11-20T04:07:07;18.02;;;9.40;;
29878;SDS011;16752;53.364;-1.488;2022-11-20T04:09:33;15.43;;;9.40;;
29878;SDS011;16752;53.364;-1.488;2022-11-20T04:12:00;18.70;;;8.65;;
29878;SDS011;16752;53.364;-1.488;2022-11-20T04:14:25;18.05;;;10.25;;
29878;SDS011;16752;53.364;-1.488;2022-11-20T04:16:51;15.88;;;9.15;;
29878;SDS011;16752;53.364;-1.488;2022-11-20T04:19:18;23.67;;;9.55;;
29878;SDS011;16752;53.364;-1.488;2022-11-20T04:21:44;21.90;;;8.73;;
29878;SDS011;16752;53.364;-1.488;2022-11-20T04:24:10;22.92;;;9.27;;
29878;SDS011;16752;53.364;-1.488;2022-11-20T04:26:36;18.27;;;9.45;;
29878;SDS011;16752;53.364;-1.488;2022-11-20T04:29:03;16.98;;;8.75;;
29878;SDS011;16752;53.364;-1.488;2022-11-20T04:31:30;18.77;;;8.93;;
29878;SDS011;16752;53.364;-1.488;2022-11-20T04:34:00;24.38;;;10.63;;
29878;SDS011;16752;53.364;-1.488;2022-11-20T04:36:28;15.00;;;9.43;;
29878;SDS011;16752;53.364;-1.488;2022-11-20T04:38:58;15.25;;;8.43;;
29878;SDS011;16752;53.364;-1.488;2022-11-20T04:41:28;13.95;;;8.30;;
29878;SDS011;16752;53.364;-1.488;2022-11-20T04:43:56;21.60;;;9.35;;
29878;SDS011;16752;53.364;-1.488;2022-11-20T04:46:39;15.93;;;8.38;;
29878;SDS011;16752;53.364;-1.488;2022-11-20T04:49:05;16.02;;;8.15;;
29878;SDS011;16752;53.364;-1.488;2022-11-20T04:51:38;13.27;;;8.02;;
29878;SDS011;16752;53.364;-1.488;2022-11-20T04:54:27;14.23;;;9.40;;
29878;SDS011;16752;53.364;-1.488;2022-11-20T04:57:06;12.05;;;7.65;;
29878;SDS011;16752;53.364;-1.488;2022-11-20T04:59:42;14.55;;;7.82;;
29878;SDS011;16752;53.364;-1.488;2022-11-20T05:02:08;12.90;;;7.22;;
29878;SDS011;16752;53.364;-1.488;2022-11-20T05:07:38;9.18;;;5.68;;
29878;SDS011;16752;53.364;-1.488;2022-11-20T05:14:26;8.80;;;4.93;;
29878;SDS011;16752;53.364;-1.488;2022-11-20T05:33:17;8.52;;;4.50;;
29878;SDS011;16752;53.364;-1.488;2022-11-20T06:11:27;3.80;;;1.27;;
29878;SDS011;16752;53.364;-1.488;2022-11-20T06:17:04;3.28;;;1.20;;
29878;SDS011;16752;53.364;-1.488;2022-11-20T06:29:40;1.40;;;1.30;;
29878;SDS011;16752;53.364;-1.488;2022-11-20T06:39:04;2.08;;;1.33;;
29878;SDS011;16752;53.364;-1.488;2022-11-20T06:41:33;2.95;;;1.42;;
29878;SDS011;16752;53.364;-1.488;2022-11-20T06:44:02;3.72;;;1.40;;
29878;SDS011;16752;53.364;-1.488;2022-11-20T06:46:32;2.35;;;1.30;;
29878;SDS011;16752;53.364;-1.488;2022-11-20T06:52:22;1.50;;;1.40;;
29878;SDS011;16752;53.364;-1.488;2022-11-20T06:54:47;1.75;;;1.65;;
29878;SDS011;16752;53.364;-1.488;2022-11-20T06:57:15;1.98;;;1.70;;
29878;SDS011;16752;53.364;-1.488;2022-11-20T06:59:41;3.50;;;1.45;;
29878;SDS011;16752;53.364;-1.488;2022-11-20T07:02:10;1.88;;;1.70;;
29878;SDS011;16752;53.364;-1.488;2022-11-20T07:04:37;1.58;;;1.48;;
29878;SDS011;16752;53.364;-1.488;2022-11-20T07:07:03;1.65;;;1.55;;
29878;SDS011;16752;53.364;-1.488;2022-11-20T07:09:29;2.80;;;1.55;;
29878;SDS011;16752;53.364;-1.488;2022-11-20T07:11:55;1.77;;;1.65;;
29878;SDS011;16752;53.364;-1.488;2022-11-20T07:14:20;2.55;;;1.80;;
29878;SDS011;16752;53.364;-1.488;2022-11-20T07:16:47;1.77;;;1.58;;
29878;SDS011;16752;53.364;-1.488;2022-11-20T07:19:12;2.67;;;1.52;;
29878;SDS011;16752;53.364;-1.488;2022-11-20T07:21:38;2.15;;;1.52;;
29878;SDS011;16752;53.364;-1.488;2022-11-20T07:24:04;4.22;;;1.98;;
29878;SDS011;16752;53.364;-1.488;2022-11-20T07:26:29;2.03;;;1.83;;
29878;SDS011;16752;53.364;-1.488;2022-11-20T07:28:55;2.55;;;1.95;;
29878;SDS011;16752;53.364;-1.488;2022-11-20T07:34:57;2.33;;;2.15;;
29878;SDS011;16752;53.364;-1.488;2022-11-20T07:37:24;4.13;;;1.92;;
29878;SDS011;16752;53.364;-1.488;2022-11-20T07:39:52;3.90;;;2.60;;
29878;SDS011;16752;53.364;-1.488;2022-11-20T07:45:45;5.65;;;3.47;;
29878;SDS011;16752;53.364;-1.488;2022-11-20T07:48:11;3.97;;;3.22;;
29878;SDS011;16752;53.364;-1.488;2022-11-20T07:50:36;3.97;;;3.10;;
29878;SDS011;16752;53.364;-1.488;2022-11-20T07:53:11;3.35;;;3.08;;
29878;SDS011;16752;53.364;-1.488;2022-11-20T07:55:49;4.22;;;3.40;;
29878;SDS011;16752;53.364;-1.488;2022-11-20T07:58:18;3.40;;;3.10;;
29878;SDS011;16752;53.364;-1.488;2022-11-20T08:00:45;5.18;;;3.35;;
29878;SDS011;16752;53.364;-1.488;2022-11-20T08:03:19;5.80;;;3.13;;
29878;SDS011;16752;53.364;-1.488;2022-11-20T08:06:19;4.63;;;3.13;;
29878;SDS011;16752;53.364;-1.488;2022-11-20T08:08:52;6.80;;;3.83;;
29878;SDS011;16752;53.364;-1.488;2022-11-20T08:11:44;4.82;;;3.38;;
29878;SDS011;16752;53.364;-1.488;2022-11-20T08:28:19;18.17;;;7.32;;
29878;SDS011;16752;53.364;-1.488;2022-11-20T09:10:43;15.65;;;6.00;;
29878;SDS011;16752;53.364;-1.488;2022-11-20T09:13:21;15.82;;;6.85;;
29878;SDS011;16752;53.364;-1.488;2022-11-20T09:26:55;12.98;;;6.00;;
29878;SDS011;16752;53.364;-1.488;2022-11-20T09:33:45;19.77;;;5.30;;
29878;SDS011;16752;53.364;-1.488;2022-11-20T09:36:40;16.25;;;5.25;;
29878;SDS011;16752;53.364;-1.488;2022-11-20T09:39:24;20.38;;;5.40;;
29878;SDS011;16752;53.364;-1.488;2022-11-20T09:42:04;10.18;;;3.88;;
29878;SDS011;16752;53.364;-1.488;2022-11-20T09:45:24;16.92;;;4.85;;
29878;SDS011;16752;53.364;-1.488;2022-11-20T09:47:49;22.60;;;4.82;;
29878;SDS011;16752;53.364;-1.488;2022-11-20T09:50:54;32.28;;;5.78;;
29878;SDS011;16752;53.364;-1.488;2022-11-20T09:56:03;20.08;;;5.53;;
29878;SDS011;16752;53.364;-1.488;2022-11-20T09:58:45;26.52;;;6.40;;
29878;SDS011;16752;53.364;-1.488;2022-11-20T10:01:16;18.83;;;5.72;;
29878;SDS011;16752;53.364;-1.488;2022-11-20T10:03:57;25.02;;;5.95;;
29878;SDS011;16752;53.364;-1.488;2022-11-20T10:06:32;19.13;;;5.60;;
29878;SDS011;16752;53.364;-1.488;2022-11-20T10:09:04;18.10;;;5.28;;
29878;SDS011;16752;53.364;-1.488;2022-11-20T10:11:46;24.02;;;5.57;;
29878;SDS011;16752;53.364;-1.488;2022-11-20T10:20:14;23.80;;;4.80;;
29878;SDS011;16752;53.364;-1.488;2022-11-20T10:26:17;13.38;;;3.60;;
29878;SDS011;16752;53.364;-1.488;2022-11-20T10:29:11;17.25;;;3.85;;
29878;SDS011;16752;53.364;-1.488;2022-11-20T10:31:45;11.45;;;3.83;;
29878;SDS011;16752;53.364;-1.488;2022-11-20T10:34:21;14.90;;;3.60;;
29878;SDS011;16752;53.364;-1.488;2022-11-20T10:36:58;16.33;;;3.80;;
29878;SDS011;16752;53.364;-1.488;2022-11-20T10:42:23;22.88;;;5.00;;
29878;SDS011;16752;53.364;-1.488;2022-11-20T10:45:15;9.25;;;3.00;;
29878;SDS011;16752;53.364;-1.488;2022-11-20T10:48:10;14.38;;;3.85;;
29878;SDS011;16752;53.364;-1.488;2022-11-20T10:50:57;14.30;;;3.10;;
29878;SDS011;16752;53.364;-1.488;2022-11-20T10:59:23;17.75;;;3.92;;
29878;SDS011;16752;53.364;-1.488;2022-11-20T11:01:43;16.88;;;3.35;;
29878;SDS011;16752;53.364;-1.488;2022-11-20T11:09:48;18.90;;;4.38;;
29878;SDS011;16752;53.364;-1.488;2022-11-20T11:12:17;12.95;;;3.08;;
29878;SDS011;16752;53.364;-1.488;2022-11-20T11:14:48;13.73;;;3.30;;
29878;SDS011;16752;53.364;-1.488;2022-11-20T11:17:29;16.95;;;3.85;;
29878;SDS011;16752;53.364;-1.488;2022-11-20T11:20:00;15.88;;;3.53;;
29878;SDS011;16752;53.364;-1.488;2022-11-20T11:22:29;20.08;;;4.22;;
29878;SDS011;16752;53.364;-1.488;2022-11-20T11:24:57;12.82;;;3.92;;
29878;SDS011;16752;53.364;-1.488;2022-11-20T11:27:26;10.10;;;3.50;;
29878;SDS011;16752;53.364;-1.488;2022-11-20T11:30:02;11.10;;;3.70;;
29878;SDS011;16752;53.364;-1.488;2022-11-20T11:32:37;20.35;;;4.47;;
29878;SDS011;16752;53.364;-1.488;2022-11-20T11:35:04;11.93;;;3.42;;
29878;SDS011;16752;53.364;-1.488;2022-11-20T11:40:43;19.85;;;4.40;;
29878;SDS011;16752;53.364;-1.488;2022-11-20T11:43:19;14.13;;;3.80;;
29878;SDS011;16752;53.364;-1.488;2022-11-20T11:46:09;10.68;;;2.80;;
29878;SDS011;16752;53.364;-1.488;2022-11-20T11:57:00;16.38;;;4.00;;
29878;SDS011;16752;53.364;-1.488;2022-11-20T11:59:54;11.15;;;3.20;;
29878;SDS011;16752;53.364;-1.488;2022-11-20T12:05:40;17.38;;;3.80;;
29878;SDS011;16752;53.364;-1.488;2022-11-20T12:08:21;14.65;;;3.90;;
29878;SDS011;16752;53.364;-1.488;2022-11-20T12:10:56;10.07;;;2.63;;
29878;SDS011;16752;53.364;-1.488;2022-11-20T12:16:03;12.93;;;3.60;;
29878;SDS011;16752;53.364;-1.488;2022-11-20T12:18:29;13.07;;;3.15;;
29878;SDS011;16752;53.364;-1.488;2022-11-20T12:30:16;18.75;;;5.13;;
29878;SDS011;16752;53.364;-1.488;2022-11-20T12:39:04;17.73;;;3.78;;
29878;SDS011;16752;53.364;-1.488;2022-11-20T13:01:51;9.52;;;3.63;;
29878;SDS011;16752;53.364;-1.488;2022-11-20T13:07:10;18.90;;;3.53;;
29878;SDS011;16752;53.364;-1.488;2022-11-20T13:09:56;18.85;;;4.50;;
29878;SDS011;16752;53.364;-1.488;2022-11-20T13:12:29;14.75;;;3.60;;
29878;SDS011;16752;53.364;-1.488;2022-11-20T13:17:47;21.20;;;4.75;;
29878;SDS011;16752;53.364;-1.488;2022-11-20T13:20:19;16.02;;;4.03;;
29878;SDS011;16752;53.364;-1.488;2022-11-20T13:22:46;19.90;;;4.45;;
29878;SDS011;16752;53.364;-1.488;2022-11-20T13:25:33;19.92;;;4.25;;
29878;SDS011;16752;53.364;-1.488;2022-11-20T13:28:03;13.82;;;3.53;;
29878;SDS011;16752;53.364;-1.488;2022-11-20T13:30:34;19.50;;;4.93;;
29878;SDS011;16752;53.364;-1.488;2022-11-20T13:33:04;16.98;;;3.63;;
29878;SDS011;16752;53.364;-1.488;2022-11-20T13:35:34;21.10;;;4.03;;
29878;SDS011;16752;53.364;-1.488;2022-11-20T13:38:06;17.42;;;4.15;;
29878;SDS011;16752;53.364;-1.488;2022-11-20T13:40:35;18.63;;;3.75;;
29878;SDS011;16752;53.364;-1.488;2022-11-20T13:43:14;24.27;;;4.25;;
29878;SDS011;16752;53.364;-1.488;2022-11-20T13:48:19;19.20;;;5.18;;
29878;SDS011;16752;53.364;-1.488;2022-11-20T13:51:09;20.50;;;3.72;;
29878;SDS011;16752;53.364;-1.488;2022-11-20T13:56:52;24.00;;;5.00;;
29878;SDS011;16752;53.364;-1.488;2022-11-20T14:02:16;17.17;;;3.33;;
29878;SDS011;16752;53.364;-1.488;2022-11-20T14:04:46;11.85;;;3.03;;
29878;SDS011;16752;53.364;-1.488;2022-11-20T14:07:14;21.73;;;4.25;;
29878;SDS011;16752;53.364;-1.488;2022-11-20T14:09:52;22.77;;;3.43;;
29878;SDS011;16752;53.364;-1.488;2022-11-20T14:12:27;25.25;;;3.92;;
29878;SDS011;16752;53.364;-1.488;2022-11-20T14:14:55;17.33;;;4.25;;
29878;SDS011;16752;53.364;-1.488;2022-11-20T14:17:23;17.13;;;3.03;;
29878;SDS011;16752;53.364;-1.488;2022-11-20T14:19:55;25.55;;;5.35;;
29878;SDS011;16752;53.364;-1.488;2022-11-20T14:22:25;28.73;;;9.52;;
29878;SDS011;16752;53.364;-1.488;2022-11-20T14:25:06;16.40;;;4.18;;
29878;SDS011;16752;53.364;-1.488;2022-11-20T14:27:45;22.95;;;4.68;;
29878;SDS011;16752;53.364;-1.488;2022-11-20T14:30:18;18.80;;;3.88;;
29878;SDS011;16752;53.364;-1.488;2022-11-20T14:32:46;17.98;;;3.08;;
29878;SDS011;16752;53.364;-1.488;2022-11-20T14:35:15;20.30;;;4.25;;
29878;SDS011;16752;53.364;-1.488;2022-11-20T14:37:46;19.35;;;5.15;;
29878;SDS011;16752;53.364;-1.488;2022-11-20T14:40:30;18.60;;;4.55;;
29878;SDS011;16752;53.364;-1.488;2022-11-20T14:42:57;15.38;;;4.32;;
29878;SDS011;16752;53.364;-1.488;2022-11-20T14:45:24;19.17;;;4.40;;
29878;SDS011;16752;53.364;-1.488;2022-11-20T14:47:51;19.95;;;3.90;;
29878;SDS011;16752;53.364;-1.488;2022-11-20T14:50:19;18.98;;;4.63;;
29878;SDS011;16752;53.364;-1.488;2022-11-20T14:52:53;21.13;;;5.15;;
29878;SDS011;16752;53.364;-1.488;2022-11-20T14:55:31;9.25;;;3.42;;
29878;SDS011;16752;53.364;-1.488;2022-11-20T14:58:00;12.70;;;3.17;;
29878;SDS011;16752;53.364;-1.488;2022-11-20T15:00:32;11.77;;;3.38;;
29878;SDS011;16752;53.364;-1.488;2022-11-20T15:02:59;21.15;;;4.45;;
29878;SDS011;16752;53.364;-1.488;2022-11-20T15:05:26;19.55;;;4.47;;
29878;SDS011;16752;53.364;-1.488;2022-11-20T15:08:10;12.65;;;4.30;;
29878;SDS011;16752;53.364;-1.488;2022-11-20T15:10:37;18.50;;;4.45;;
29878;SDS011;16752;53.364;-1.488;2022-11-20T15:13:11;15.68;;;4.35;;
29878;SDS011;16752;53.364;-1.488;2022-11-20T15:15:50;16.25;;;4.00;;
29878;SDS011;16752;53.364;-1.488;2022-11-20T15:18:24;21.52;;;5.68;;
29878;SDS011;16752;53.364;-1.488;2022-11-20T15:20:54;16.38;;;4.22;;
29878;SDS011;16752;53.364;-1.488;2022-11-20T15:23:21;19.05;;;4.82;;
29878;SDS011;16752;53.364;-1.488;2022-11-20T15:25:48;19.13;;;6.25;;
29878;SDS011;16752;53.364;-1.488;2022-11-20T15:28:21;22.08;;;4.90;;
29878;SDS011;16752;53.364;-1.488;2022-11-20T15:30:52;16.35;;;4.72;;
29878;SDS011;16752;53.364;-1.488;2022-11-20T15:33:28;20.58;;;5.00;;
29878;SDS011;16752;53.364;-1.488;2022-11-20T15:35:54;18.33;;;4.90;;
29878;SDS011;16752;53.364;-1.488;2022-11-20T15:38:20;20.10;;;4.60;;
29878;SDS011;16752;53.364;-1.488;2022-11-20T15:40:46;24.15;;;6.63;;
29878;SDS011;16752;53.364;-1.488;2022-11-20T15:43:11;24.70;;;5.22;;
29878;SDS011;16752;53.364;-1.488;2022-11-20T15:48:45;14.05;;;3.88;;
29878;SDS011;16752;53.364;-1.488;2022-11-20T15:51:26;8.88;;;2.95;;
29878;SDS011;16752;53.364;-1.488;2022-11-20T15:53:55;21.38;;;4.40;;
29878;SDS011;16752;53.364;-1.488;2022-11-20T15:56:21;11.60;;;3.50;;
29878;SDS011;16752;53.364;-1.488;2022-11-20T15:58:47;10.75;;;3.53;;
29878;SDS011;16752;53.364;-1.488;2022-11-20T16:01:13;8.82;;;2.90;;
29878;SDS011;16752;53.364;-1.488;2022-11-20T16:03:43;11.18;;;3.67;;
29878;SDS011;16752;53.364;-1.488;2022-11-20T16:06:16;8.30;;;2.53;;
29878;SDS011;16752;53.364;-1.488;2022-11-20T16:08:51;9.13;;;2.45;;
29878;SDS011;16752;53.364;-1.488;2022-11-20T16:11:19;7.53;;;2.17;;
29878;SDS011;16752;53.364;-1.488;2022-11-20T16:13:49;6.10;;;2.28;;
29878;SDS011;16752;53.364;-1.488;2022-11-20T16:16:39;9.90;;;2.67;;
29878;SDS011;16752;53.364;-1.488;2022-11-20T16:19:13;4.05;;;1.95;;
29878;SDS011;16752;53.364;-1.488;2022-11-20T16:21:40;5.75;;;2.15;;
29878;SDS011;16752;53.364;-1.488;2022-11-20T16:24:10;6.60;;;2.03;;
29878;SDS011;16752;53.364;-1.488;2022-11-20T16:26:38;5.15;;;2.33;;
29878;SDS011;16752;53.364;-1.488;2022-11-20T16:29:09;6.25;;;2.00;;
29878;SDS011;16752;53.364;-1.488;2022-11-20T16:31:35;4.82;;;1.80;;
29878;SDS011;16752;53.364;-1.488;2022-11-20T16:34:06;3.20;;;2.10;;
29878;SDS011;16752;53.364;-1.488;2022-11-20T16:36:33;3.38;;;1.83;;
29878;SDS011;16752;53.364;-1.488;2022-11-20T16:39:00;3.95;;;1.90;;
29878;SDS011;16752;53.364;-1.488;2022-11-20T16:41:31;2.08;;;1.50;;
29878;SDS011;16752;53.364;-1.488;2022-11-20T16:43:59;2.20;;;1.40;;
29878;SDS011;16752;53.364;-1.488;2022-11-20T16:46:27;2.25;;;1.48;;
29878;SDS011;16752;53.364;-1.488;2022-11-20T16:48:58;5.20;;;1.90;;
29878;SDS011;16752;53.364;-1.488;2022-11-20T16:51:25;1.42;;;1.25;;
29878;SDS011;16752;53.364;-1.488;2022-11-20T16:53:53;2.35;;;1.65;;
29878;SDS011;16752;53.364;-1.488;2022-11-20T16:56:23;1.50;;;1.20;;
29878;SDS011;16752;53.364;-1.488;2022-11-20T16:58:51;1.10;;;1.00;;
29878;SDS011;16752;53.364;-1.488;2022-11-20T17:01:20;1.13;;;1.05;;
29878;SDS011;16752;53.364;-1.488;2022-11-20T17:03:52;3.58;;;1.77;;
29878;SDS011;16752;53.364;-1.488;2022-11-20T17:06:21;2.33;;;1.52;;
29878;SDS011;16752;53.364;-1.488;2022-11-20T17:08:47;2.78;;;1.70;;
29878;SDS011;16752;53.364;-1.488;2022-11-20T17:11:14;2.00;;;1.70;;
29878;SDS011;16752;53.364;-1.488;2022-11-20T17:13:41;1.95;;;1.75;;
29878;SDS011;16752;53.364;-1.488;2022-11-20T17:16:11;3.85;;;1.83;;
29878;SDS011;16752;53.364;-1.488;2022-11-20T17:18:39;1.30;;;1.02;;
29878;SDS011;16752;53.364;-1.488;2022-11-20T17:21:05;2.97;;;1.80;;
29878;SDS011;16752;53.364;-1.488;2022-11-20T17:23:32;2.20;;;1.67;;
29878;SDS011;16752;53.364;-1.488;2022-11-20T17:26:00;3.03;;;1.80;;
29878;SDS011;16752;53.364;-1.488;2022-11-20T17:28:28;3.35;;;2.22;;
29878;SDS011;16752;53.364;-1.488;2022-11-20T17:30:57;4.75;;;2.25;;
29878;SDS011;16752;53.364;-1.488;2022-11-20T17:33:27;3.10;;;2.22;;
29878;SDS011;16752;53.364;-1.488;2022-11-20T17:35:53;3.10;;;2.25;;
29878;SDS011;16752;53.364;-1.488;2022-11-20T17:38:19;6.22;;;2.85;;
29878;SDS011;16752;53.364;-1.488;2022-11-20T17:40:46;4.22;;;3.00;;
29878;SDS011;16752;53.364;-1.488;2022-11-20T17:43:11;3.53;;;2.63;;
29878;SDS011;16752;53.364;-1.488;2022-11-20T17:45:37;3.30;;;2.60;;
29878;SDS011;16752;53.364;-1.488;2022-11-20T17:48:02;3.00;;;2.30;;
29878;SDS011;16752;53.364;-1.488;2022-11-20T17:50:28;3.00;;;2.60;;
29878;SDS011;16752;53.364;-1.488;2022-11-20T17:52:54;2.85;;;2.45;;
29878;SDS011;16752;53.364;-1.488;2022-11-20T17:55:19;5.07;;;2.88;;
29878;SDS011;16752;53.364;-1.488;2022-11-20T17:57:45;3.97;;;2.90;;
29878;SDS011;16752;53.364;-1.488;2022-11-20T18:00:18;2.85;;;2.20;;
29878;SDS011;16752;53.364;-1.488;2022-11-20T18:03:10;3.92;;;3.47;;
29878;SDS011;16752;53.364;-1.488;2022-11-20T18:05:36;4.47;;;3.63;;
29878;SDS011;16752;53.364;-1.488;2022-11-20T18:08:01;7.40;;;4.75;;
29878;SDS011;16752;53.364;-1.488;2022-11-20T18:10:28;7.57;;;4.70;;
29878;SDS011;16752;53.364;-1.488;2022-11-20T18:12:55;12.75;;;7.65;;
29878;SDS011;16752;53.364;-1.488;2022-11-20T18:15:21;13.80;;;9.75;;
29878;SDS011;16752;53.364;-1.488;2022-11-20T18:17:47;15.43;;;10.73;;
29878;SDS011;16752;53.364;-1.488;2022-11-20T18:20:13;13.82;;;8.15;;
29878;SDS011;16752;53.364;-1.488;2022-11-20T18:22:39;10.88;;;7.70;;
29878;SDS011;16752;53.364;-1.488;2022-11-20T18:25:05;14.23;;;8.02;;
29878;SDS011;16752;53.364;-1.488;2022-11-20T18:31:03;13.65;;;7.75;;
29878;SDS011;16752;53.364;-1.488;2022-11-20T18:33:31;12.68;;;7.00;;
29878;SDS011;16752;53.364;-1.488;2022-11-20T18:35:58;12.27;;;7.55;;
29878;SDS011;16752;53.364;-1.488;2022-11-20T18:38:32;11.80;;;8.10;;
29878;SDS011;16752;53.364;-1.488;2022-11-20T18:40:57;12.70;;;8.70;;
29878;SDS011;16752;53.364;-1.488;2022-11-20T18:43:23;11.50;;;7.82;;
29878;SDS011;16752;53.364;-1.488;2022-11-20T18:46:07;18.20;;;10.32;;
29878;SDS011;16752;53.364;-1.488;2022-11-20T18:48:33;17.80;;;9.35;;
29878;SDS011;16752;53.364;-1.488;2022-11-20T18:51:08;13.82;;;9.35;;
29878;SDS011;16752;53.364;-1.488;2022-11-20T18:53:36;15.57;;;9.88;;
29878;SDS011;16752;53.364;-1.488;2022-11-20T18:56:03;13.07;;;9.13;;
29878;SDS011;16752;53.364;-1.488;2022-11-20T18:58:30;17.38;;;10.57;;
29878;SDS011;16752;53.364;-1.488;2022-11-20T19:00:55;13.82;;;10.15;;
29878;SDS011;16752;53.364;-1.488;2022-11-20T19:03:28;16.70;;;10.38;;
29878;SDS011;16752;53.364;-1.488;2022-11-20T19:05:54;20.67;;;11.68;;
29878;SDS011;16752;53.364;-1.488;2022-11-20T19:08:20;16.52;;;10.63;;
29878;SDS011;16752;53.364;-1.488;2022-11-20T19:10:46;21.63;;;11.55;;
29878;SDS011;16752;53.364;-1.488;2022-11-20T19:13:12;17.00;;;11.32;;
29878;SDS011;16752;53.364;-1.488;2022-11-20T19:15:37;15.45;;;11.63;;